Pieter Caland — PBTB — position and weather

sailwx.info

Track history (hours):
 
Tides and Currents Weather Stations Pressure Air Temp Water Temp Dewpoint Dewpoint Depression Visibility Wind Speed Wind Dir Waves Ship Positions

Pieter Caland

Last reported at 2016-Aug-27 04:34 UTC. Time now 2016-Aug-27 06:24 UTC.
Position S 22°52' W 043°12'.

Length 96 m; draft 3.3 m.

Type: Ship. MMSI: 244992000.

Date/timePositionNaut miles runAvg speedWind from/ knotsBaromVisibWave heightAir tempDewpointWater temp
2016-Aug-27 04:34S 22°52' W 043°12'5 4.6
2016-Aug-27 03:33S 22°56' W 043°09'10 9.6
2016-Aug-27 02:34S 23°05' W 043°05'2 2.0
2016-Aug-27 01:33S 23°03' W 043°06'9 8.8
2016-Aug-27 00:34S 22°54' W 043°09'4 3.6
2016-Aug-26 23:34S 22°52' W 043°12'0 0.0
2016-Aug-26 22:34S 22°52' W 043°12'5 4.6
2016-Aug-26 21:34S 22°56' W 043°08'10 9.8
2016-Aug-26 20:34S 23°05' W 043°05'3 3.5
2016-Aug-26 19:34S 23°01' W 043°06'9 8.7
2016-Aug-26 18:33S 22°53' W 043°10'2 2.2
2016-Aug-26 17:33S 22°52' W 043°12'0 0.0
2016-Aug-26 16:33S 22°52' W 043°12'0 0.0
2016-Aug-26 15:34S 22°52' W 043°12'1 1.4
2016-Aug-26 14:34S 22°53' W 043°11'7 7.1
2016-Aug-26 13:34S 22°59' W 043°07'9 8.6
2016-Aug-26 12:34S 23°07' W 043°04'6 6.1
2016-Aug-26 11:34S 23°02' W 043°06'9 8.6
2016-Aug-26 10:33S 22°54' W 043°10'3 2.7
2016-Aug-26 09:33S 22°52' W 043°12'0 0.0
2016-Aug-26 08:34S 22°52' W 043°12'0 0.0
2016-Aug-26 07:34S 22°52' W 043°12'4 4.4
2016-Aug-26 06:34S 22°55' W 043°09'8 4.0
2016-Aug-26 04:33S 23°03' W 043°06'9 8.7
2016-Aug-26 03:34S 22°55' W 043°09'4 4.0
2016-Aug-26 02:33S 22°52' W 043°12'0 0.0
2016-Aug-26 01:34S 22°52' W 043°12'0 0.0
2016-Aug-26 00:34S 22°52' W 043°12'0 0.0
2016-Aug-25 23:34S 22°52' W 043°12'0 0.0
2016-Aug-25 22:34S 22°52' W 043°12'0 0.0
2016-Aug-25 21:34S 22°52' W 043°12'0 0.0
2016-Aug-25 20:33S 22°52' W 043°12'5 5.1
2016-Aug-25 19:34S 22°56' W 043°08'10 9.6
2016-Aug-25 18:34S 23°05' W 043°05'3 3.1
2016-Aug-25 17:33S 23°02' W 043°06'9 8.5
2016-Aug-25 16:33S 22°54' W 043°09'3 3.3
2016-Aug-25 15:34S 22°52' W 043°12'0 0.0
2016-Aug-25 14:34S 22°52' W 043°12'0 0.0
2016-Aug-25 13:34S 22°52' W 043°12'0 0.0
2016-Aug-25 12:33S 22°52' W 043°12'6 6.3
2016-Aug-25 11:33S 22°57' W 043°08'9 9.2
2016-Aug-25 10:33S 23°06' W 043°05'6 5.5
2016-Aug-25 09:33S 23°01' W 043°07'8 8.1
2016-Aug-25 08:33S 22°53' W 043°10'2 2.4
2016-Aug-25 07:33S 22°52' W 043°12'0 0.0
2016-Aug-25 06:33S 22°52' W 043°12'0 0.0
2016-Aug-25 04:34S 22°52' W 043°12'0 0.2
2016-Aug-25 03:34S 22°52' W 043°12'1 1.3
2016-Aug-25 02:34S 22°53' W 043°11'0 0.0
2016-Aug-25 01:34S 22°53' W 043°11'0 0.0
2016-Aug-25 00:34S 22°53' W 043°11'0 0.0
2016-Aug-24 23:34S 22°53' W 043°11'0 0.0
2016-Aug-24 22:34S 22°53' W 043°11'4 4.3
2016-Aug-24 21:34S 22°56' W 043°08'9 9.4
2016-Aug-24 20:34S 23°05' W 043°05'4 3.5
2016-Aug-24 19:33S 23°02' W 043°06'8 7.7
2016-Aug-24 18:34S 22°55' W 043°09'4 3.8
2016-Aug-24 17:34S 22°53' W 043°12'0 0.0
2016-Aug-24 16:34S 22°53' W 043°12'0 0.0
2016-Aug-24 15:34S 22°53' W 043°12'2 1.9
2016-Aug-24 14:34S 22°53' W 043°10'8 8.4
2016-Aug-24 13:34S 23°01' W 043°07'6 6.3
2016-Aug-24 12:34S 23°07' W 043°04'8 7.6
2016-Aug-24 11:34S 22°60' W 043°07'8 7.9
2016-Aug-24 10:34S 22°53' W 043°11'1 0.8
2016-Aug-24 09:34S 22°53' W 043°12'0 0.0
2016-Aug-24 08:34S 22°53' W 043°12'1 1.5
2016-Aug-24 07:33S 22°53' W 043°11'9 8.7
2016-Aug-24 06:33S 23°01' W 043°06'3 1.5
2016-Aug-24 04:34S 22°58' W 043°08'7 7.2
2016-Aug-24 03:34S 22°53' W 043°12'0 0.1
2016-Aug-24 02:34S 22°53' W 043°12'0 0.0
2016-Aug-24 01:34S 22°53' W 043°12'0 0.0
2016-Aug-24 00:33S 22°53' W 043°12'5 4.8
2016-Aug-23 23:34S 22°56' W 043°08'9 8.7
2016-Aug-23 22:34S 23°04' W 043°05'2 2.0
2016-Aug-23 21:34S 23°06' W 043°04'8 8.5
2016-Aug-23 20:33S 22°58' W 043°08'6 6.5
2016-Aug-23 19:33S 22°53' W 043°12'1 0.7
2016-Aug-23 18:34S 22°53' W 043°12'0 0.1
2016-Aug-23 17:34S 22°53' W 043°12'0 0.0
2016-Aug-23 16:33S 22°53' W 043°12'0 0.5
2016-Aug-23 15:33S 22°53' W 043°12'1 0.6
2016-Aug-23 14:25S 22°53' W 043°11'0 0.0
2016-Aug-23 13:31S 22°53' W 043°11'0 0.0
2016-Aug-23 12:31S 22°53' W 043°11'4 4.7
2016-Aug-23 11:33S 22°57' W 043°08'8 7.9
2016-Aug-23 10:33S 23°04' W 043°05'1 1.4
2016-Aug-23 09:32S 23°03' W 043°06'7 7.5
2016-Aug-23 08:33S 22°56' W 043°09'3 3.5
2016-Aug-23 07:33S 22°53' W 043°11'0 0.0
2016-Aug-23 06:33S 22°53' W 043°11'0 0.0
2016-Aug-23 05:33S 22°53' W 043°11'0 0.0
2016-Aug-23 04:33S 22°53' W 043°11'0 0.0
2016-Aug-23 03:33S 22°53' W 043°11'0 0.0
2016-Aug-23 02:33S 22°53' W 043°11'0 0.2
2016-Aug-23 01:33S 22°53' W 043°11'1 1.2
2016-Aug-23 00:33S 22°53' W 043°12'0 0.0
2016-Aug-22 23:33S 22°53' W 043°12'0 0.0
2016-Aug-22 22:33S 22°53' W 043°12'0 0.0
2016-Aug-22 21:33S 22°53' W 043°12'0 0.0
2016-Aug-22 20:33S 22°53' W 043°12'4 3.8
2016-Aug-22 19:33S 22°55' W 043°09'9 8.6
2016-Aug-22 18:33S 23°03' W 043°05'2 1.9
2016-Aug-22 17:33S 23°05' W 043°05'7 7.0
2016-Aug-22 16:33S 22°58' W 043°08'6 5.9
2016-Aug-22 15:31S 22°53' W 043°11'0 0.0
2016-Aug-22 14:25S 22°53' W 043°11'0 0.0
2016-Aug-22 13:31S 22°53' W 043°11'0 0.0
2016-Aug-22 12:31S 22°53' W 043°11'0 0.0
2016-Aug-22 11:31S 22°53' W 043°11'0 0.0
2016-Aug-22 10:31S 22°53' W 043°11'0 0.0
2016-Aug-22 09:31S 22°53' W 043°11'0 0.1
2016-Aug-22 08:31S 22°53' W 043°11'0 0.0
2016-Aug-22 07:31S 22°53' W 043°11'0 0.0
2016-Aug-22 06:31S 22°53' W 043°11'0 0.0
2016-Aug-22 05:31S 22°53' W 043°11'0 0.0
2016-Aug-22 04:25S 22°53' W 043°11'0 0.0
2016-Aug-22 03:25S 22°53' W 043°11'0 0.0
2016-Aug-22 02:31S 22°53' W 043°11'0 0.0
2016-Aug-22 01:31S 22°53' W 043°11'0 0.0
2016-Aug-22 00:31S 22°53' W 043°11'0 0.0
2016-Aug-21 23:31S 22°53' W 043°11'0 0.0
2016-Aug-21 22:31S 22°53' W 043°11'0 0.0
2016-Aug-21 21:31S 22°53' W 043°11'1 1.4
2016-Aug-21 20:33S 22°53' W 043°12'0 0.0
2016-Aug-21 19:33S 22°53' W 043°12'0 0.0
2016-Aug-21 18:33S 22°53' W 043°12'1 1.3
2016-Aug-21 17:33S 22°53' W 043°11'9 9.2
2016-Aug-21 16:33S 23°01' W 043°06'4 3.8
2016-Aug-21 15:33S 23°05' W 043°05'9 8.8
2016-Aug-21 14:33S 22°57' W 043°08'5 5.4
2016-Aug-21 13:33S 22°53' W 043°12'0 0.0
2016-Aug-21 12:33S 22°53' W 043°12'0 0.0
2016-Aug-21 11:33S 22°53' W 043°12'5 4.9
2016-Aug-21 10:33S 22°56' W 043°08'9 8.9
2016-Aug-21 09:33S 23°04' W 043°05'1 1.1
2016-Aug-21 08:33S 23°03' W 043°05'8 8.6
2016-Aug-21 07:33S 22°56' W 043°09'4 4.2
2016-Aug-21 06:32S 22°53' W 043°12'0 0.0
2016-Aug-21 05:33S 22°53' W 043°12'0 0.0
2016-Aug-21 04:33S 22°53' W 043°12'0 0.0
2016-Aug-21 03:33S 22°53' W 043°12'7 6.8
2016-Aug-21 02:33S 22°58' W 043°08'9 9.2
2016-Aug-21 01:34S 23°07' W 043°04'6 6.2
2016-Aug-21 00:33S 23°01' W 043°07'8 8.3
2016-Aug-20 23:33S 22°53' W 043°11'2 1.6
2016-Aug-20 22:33S 22°53' W 043°12'0 0.0
2016-Aug-20 21:34S 22°53' W 043°12'5 5.2
2016-Aug-20 20:33S 22°56' W 043°08'10 9.5
2016-Aug-20 19:33S 23°05' W 043°04'4 4.4
2016-Aug-20 18:33S 23°01' W 043°06'7 7.4
2016-Aug-20 17:33S 22°54' W 043°09'4 3.5
2016-Aug-20 16:33S 22°53' W 043°12'0 0.0
2016-Aug-20 15:33S 22°53' W 043°12'5 4.7
2016-Aug-20 14:33S 22°56' W 043°08'9 9.2
2016-Aug-20 13:33S 23°04' W 043°05'3 2.6
2016-Aug-20 12:33S 23°02' W 043°06'9 8.5
2016-Aug-20 11:33S 22°54' W 043°09'3 3.2
2016-Aug-20 10:33S 22°53' W 043°12'0 0.0
2016-Aug-20 09:33S 22°53' W 043°12'0 0.0
2016-Aug-20 08:33S 22°53' W 043°12'0 0.0
2016-Aug-20 07:33S 22°53' W 043°12'0 0.0
2016-Aug-20 06:33S 22°53' W 043°12'0 0.0
2016-Aug-20 05:33S 22°53' W 043°12'0 0.0
2016-Aug-20 04:33S 22°53' W 043°12'0 0.0
2016-Aug-20 03:33S 22°53' W 043°12'1 1.3
2016-Aug-20 02:33S 22°53' W 043°11'0 0.0
2016-Aug-20 01:33S 22°53' W 043°11'1 0.8
2016-Aug-20 00:33S 22°53' W 043°12'1 0.8
2016-Aug-19 23:33S 22°53' W 043°11'0 0.0
2016-Aug-19 22:33S 22°53' W 043°11'7 6.5
2016-Aug-19 21:33S 22°59' W 043°08'9 8.5
2016-Aug-19 20:33S 23°07' W 043°04'6 6.1
2016-Aug-19 19:33S 23°01' W 043°07'8 7.6
2016-Aug-19 18:33S 22°54' W 043°09'3 3.0
2016-Aug-19 17:33S 22°53' W 043°12'0 0.0
2016-Aug-19 16:33S 22°53' W 043°12'0 0.0
2016-Aug-19 15:33S 22°53' W 043°12'0 0.0
2016-Aug-19 14:33S 22°53' W 043°12'0 0.0
2016-Aug-19 13:33S 22°53' W 043°12'0 0.0
2016-Aug-19 12:33S 22°53' W 043°12'0 0.0
2016-Aug-19 11:33S 22°53' W 043°12'0 0.0
2016-Aug-19 10:33S 22°53' W 043°12'0 0.0
2016-Aug-19 09:33S 22°53' W 043°12'0 0.2
2016-Aug-19 08:33S 22°52' W 043°12'0 0.2
2016-Aug-19 07:33S 22°53' W 043°12'1 1.1
2016-Aug-19 06:33S 22°53' W 043°11'0 0.1
2016-Aug-19 05:33S 22°53' W 043°11'0 0.0
2016-Aug-19 04:33S 22°53' W 043°11'0 0.0
2016-Aug-19 03:33S 22°53' W 043°11'0 0.0
2016-Aug-19 02:33S 22°53' W 043°11'1 1.0
2016-Aug-19 01:33S 22°53' W 043°10'9 9.0
2016-Aug-19 00:33S 23°02' W 043°06'3 3.0
2016-Aug-18 23:32S 23°04' W 043°05'9 8.9
2016-Aug-18 22:33S 22°56' W 043°08'5 5.1
2016-Aug-18 21:33S 22°53' W 043°12'0 0.0
2016-Aug-18 20:34S 22°53' W 043°12'0 0.0
2016-Aug-18 19:33S 22°53' W 043°12'0 0.0
2016-Aug-18 18:33S 22°53' W 043°12'0 0.0
2016-Aug-18 17:33S 22°53' W 043°12'0 0.0
2016-Aug-18 16:33S 22°53' W 043°12'0 0.2
2016-Aug-18 15:33S 22°52' W 043°12'1 0.9
2016-Aug-18 14:30S 22°53' W 043°11'1 1.6
2016-Aug-18 13:33S 22°53' W 043°10'9 8.9
2016-Aug-18 12:33S 23°02' W 043°06'4 4.2
2016-Aug-18 11:33S 23°06' W 043°05'9 8.8
2016-Aug-18 10:33S 22°57' W 043°08'6 6.3
2016-Aug-18 09:33S 22°53' W 043°12'0 0.0
2016-Aug-18 08:33S 22°53' W 043°12'0 0.0
2016-Aug-18 07:33S 22°53' W 043°12'0 0.0
2016-Aug-18 06:33S 22°53' W 043°12'0 0.0
2016-Aug-18 05:33S 22°53' W 043°12'0 0.2
2016-Aug-18 04:33S 22°53' W 043°12'1 1.1
2016-Aug-18 03:33S 22°53' W 043°11'0 0.1
2016-Aug-18 02:33S 22°53' W 043°11'2 2.1
2016-Aug-18 01:33S 22°54' W 043°09'1010.1
2016-Aug-18 00:33S 23°03' W 043°06'0 0.2
2016-Aug-17 23:33S 23°04' W 043°05'9 9.3
2016-Aug-17 22:33S 22°55' W 043°09'4 4.0
2016-Aug-17 21:33S 22°53' W 043°12'0 0.0
2016-Aug-17 20:33S 22°53' W 043°12'0 0.0
2016-Aug-17 19:33S 22°53' W 043°12'0 0.0
2016-Aug-17 18:33S 22°53' W 043°12'0 0.0
2016-Aug-17 17:33S 22°53' W 043°12'0 0.0
2016-Aug-17 16:33S 22°53' W 043°12'1 0.9
2016-Aug-17 15:33S 22°53' W 043°11'0 0.3
2016-Aug-17 14:28S 22°53' W 043°11'1 0.6
2016-Aug-17 13:33S 22°53' W 043°11'8 8.0
2016-Aug-17 12:33S 23°00' W 043°07'5 5.2
2016-Aug-17 11:30S 23°06' W 043°05'9 9.2
2016-Aug-17 10:33S 22°57' W 043°08'6 6.2
2016-Aug-17 09:33S 22°53' W 043°12'0 0.0
2016-Aug-17 08:33S 22°53' W 043°12'2 2.1
2016-Aug-17 07:33S 22°53' W 043°10'8 8.4
2016-Aug-17 06:33S 23°01' W 043°06'5 4.5
2016-Aug-17 05:32S 23°05' W 043°05'  
Track history (hours):
 
Tides and Currents Weather Stations Pressure Air Temp Water Temp Dewpoint Dewpoint Depression Visibility Wind Speed Wind Dir Waves Ship Positions

Pieter Caland

Last reported at 2016-Aug-27 04:34 UTC. Time now 2016-Aug-27 06:24 UTC.
Position S 22°52' W 043°12'.

Length 96 m; draft 3.3 m.

Type: Ship. MMSI: 244992000.

Date/timePositionNaut miles runAvg speedWind from/ knotsBaromVisibWave heightAir tempDewpointWater temp
2016-Aug-27 04:34S 22°52' W 043°12'5 4.6
2016-Aug-27 03:33S 22°56' W 043°09'10 9.6
2016-Aug-27 02:34S 23°05' W 043°05'2 2.0
2016-Aug-27 01:33S 23°03' W 043°06'9 8.8
2016-Aug-27 00:34S 22°54' W 043°09'4 3.6
2016-Aug-26 23:34S 22°52' W 043°12'0 0.0
2016-Aug-26 22:34S 22°52' W 043°12'5 4.6
2016-Aug-26 21:34S 22°56' W 043°08'10 9.8
2016-Aug-26 20:34S 23°05' W 043°05'3 3.5
2016-Aug-26 19:34S 23°01' W 043°06'9 8.7
2016-Aug-26 18:33S 22°53' W 043°10'2 2.2
2016-Aug-26 17:33S 22°52' W 043°12'0 0.0
2016-Aug-26 16:33S 22°52' W 043°12'0 0.0
2016-Aug-26 15:34S 22°52' W 043°12'1 1.4
2016-Aug-26 14:34S 22°53' W 043°11'7 7.1
2016-Aug-26 13:34S 22°59' W 043°07'9 8.6
2016-Aug-26 12:34S 23°07' W 043°04'6 6.1
2016-Aug-26 11:34S 23°02' W 043°06'9 8.6
2016-Aug-26 10:33S 22°54' W 043°10'3 2.7
2016-Aug-26 09:33S 22°52' W 043°12'0 0.0
2016-Aug-26 08:34S 22°52' W 043°12'0 0.0
2016-Aug-26 07:34S 22°52' W 043°12'4 4.4
2016-Aug-26 06:34S 22°55' W 043°09'8 4.0
2016-Aug-26 04:33S 23°03' W 043°06'9 8.7
2016-Aug-26 03:34S 22°55' W 043°09'4 4.0
2016-Aug-26 02:33S 22°52' W 043°12'0 0.0
2016-Aug-26 01:34S 22°52' W 043°12'0 0.0
2016-Aug-26 00:34S 22°52' W 043°12'0 0.0
2016-Aug-25 23:34S 22°52' W 043°12'0 0.0
2016-Aug-25 22:34S 22°52' W 043°12'0 0.0
2016-Aug-25 21:34S 22°52' W 043°12'0 0.0
2016-Aug-25 20:33S 22°52' W 043°12'5 5.1
2016-Aug-25 19:34S 22°56' W 043°08'10 9.6
2016-Aug-25 18:34S 23°05' W 043°05'3 3.1
2016-Aug-25 17:33S 23°02' W 043°06'9 8.5
2016-Aug-25 16:33S 22°54' W 043°09'3 3.3
2016-Aug-25 15:34S 22°52' W 043°12'0 0.0
2016-Aug-25 14:34S 22°52' W 043°12'0 0.0
2016-Aug-25 13:34S 22°52' W 043°12'0 0.0
2016-Aug-25 12:33S 22°52' W 043°12'6 6.3
2016-Aug-25 11:33S 22°57' W 043°08'9 9.2
2016-Aug-25 10:33S 23°06' W 043°05'6 5.5
2016-Aug-25 09:33S 23°01' W 043°07'8 8.1
2016-Aug-25 08:33S 22°53' W 043°10'2 2.4
2016-Aug-25 07:33S 22°52' W 043°12'0 0.0
2016-Aug-25 06:33S 22°52' W 043°12'0 0.0
2016-Aug-25 04:34S 22°52' W 043°12'0 0.2
2016-Aug-25 03:34S 22°52' W 043°12'1 1.3
2016-Aug-25 02:34S 22°53' W 043°11'0 0.0
2016-Aug-25 01:34S 22°53' W 043°11'0 0.0
2016-Aug-25 00:34S 22°53' W 043°11'0 0.0
2016-Aug-24 23:34S 22°53' W 043°11'0 0.0
2016-Aug-24 22:34S 22°53' W 043°11'4 4.3
2016-Aug-24 21:34S 22°56' W 043°08'9 9.4
2016-Aug-24 20:34S 23°05' W 043°05'4 3.5
2016-Aug-24 19:33S 23°02' W 043°06'8 7.7
2016-Aug-24 18:34S 22°55' W 043°09'4 3.8
2016-Aug-24 17:34S 22°53' W 043°12'0 0.0
2016-Aug-24 16:34S 22°53' W 043°12'0 0.0
2016-Aug-24 15:34S 22°53' W 043°12'2 1.9
2016-Aug-24 14:34S 22°53' W 043°10'8 8.4
2016-Aug-24 13:34S 23°01' W 043°07'6 6.3
2016-Aug-24 12:34S 23°07' W 043°04'8 7.6
2016-Aug-24 11:34S 22°60' W 043°07'8 7.9
2016-Aug-24 10:34S 22°53' W 043°11'1 0.8
2016-Aug-24 09:34S 22°53' W 043°12'0 0.0
2016-Aug-24 08:34S 22°53' W 043°12'1 1.5
2016-Aug-24 07:33S 22°53' W 043°11'9 8.7
2016-Aug-24 06:33S 23°01' W 043°06'3 1.5
2016-Aug-24 04:34S 22°58' W 043°08'7 7.2
2016-Aug-24 03:34S 22°53' W 043°12'0 0.1
2016-Aug-24 02:34S 22°53' W 043°12'0 0.0
2016-Aug-24 01:34S 22°53' W 043°12'0 0.0
2016-Aug-24 00:33S 22°53' W 043°12'5 4.8
2016-Aug-23 23:34S 22°56' W 043°08'9 8.7
2016-Aug-23 22:34S 23°04' W 043°05'2 2.0
2016-Aug-23 21:34S 23°06' W 043°04'8 8.5
2016-Aug-23 20:33S 22°58' W 043°08'6 6.5
2016-Aug-23 19:33S 22°53' W 043°12'1 0.7
2016-Aug-23 18:34S 22°53' W 043°12'0 0.1
2016-Aug-23 17:34S 22°53' W 043°12'0 0.0
2016-Aug-23 16:33S 22°53' W 043°12'0 0.5
2016-Aug-23 15:33S 22°53' W 043°12'1 0.6
2016-Aug-23 14:25S 22°53' W 043°11'0 0.0
2016-Aug-23 13:31S 22°53' W 043°11'0 0.0
2016-Aug-23 12:31S 22°53' W 043°11'4 4.7
2016-Aug-23 11:33S 22°57' W 043°08'8 7.9
2016-Aug-23 10:33S 23°04' W 043°05'1 1.4
2016-Aug-23 09:32S 23°03' W 043°06'7 7.5
2016-Aug-23 08:33S 22°56' W 043°09'3 3.5
2016-Aug-23 07:33S 22°53' W 043°11'0 0.0
2016-Aug-23 06:33S 22°53' W 043°11'0 0.0
2016-Aug-23 05:33S 22°53' W 043°11'0 0.0
2016-Aug-23 04:33S 22°53' W 043°11'0 0.0
2016-Aug-23 03:33S 22°53' W 043°11'0 0.0
2016-Aug-23 02:33S 22°53' W 043°11'0 0.2
2016-Aug-23 01:33S 22°53' W 043°11'1 1.2
2016-Aug-23 00:33S 22°53' W 043°12'0 0.0
2016-Aug-22 23:33S 22°53' W 043°12'0 0.0
2016-Aug-22 22:33S 22°53' W 043°12'0 0.0
2016-Aug-22 21:33S 22°53' W 043°12'0 0.0
2016-Aug-22 20:33S 22°53' W 043°12'4 3.8
2016-Aug-22 19:33S 22°55' W 043°09'9 8.6
2016-Aug-22 18:33S 23°03' W 043°05'2 1.9
2016-Aug-22 17:33S 23°05' W 043°05'7 7.0
2016-Aug-22 16:33S 22°58' W 043°08'6 5.9
2016-Aug-22 15:31S 22°53' W 043°11'0 0.0
2016-Aug-22 14:25S 22°53' W 043°11'0 0.0
2016-Aug-22 13:31S 22°53' W 043°11'0 0.0
2016-Aug-22 12:31S 22°53' W 043°11'0 0.0
2016-Aug-22 11:31S 22°53' W 043°11'0 0.0
2016-Aug-22 10:31S 22°53' W 043°11'0 0.0
2016-Aug-22 09:31S 22°53' W 043°11'0 0.1
2016-Aug-22 08:31S 22°53' W 043°11'0 0.0
2016-Aug-22 07:31S 22°53' W 043°11'0 0.0
2016-Aug-22 06:31S 22°53' W 043°11'0 0.0
2016-Aug-22 05:31S 22°53' W 043°11'0 0.0
2016-Aug-22 04:25S 22°53' W 043°11'0 0.0
2016-Aug-22 03:25S 22°53' W 043°11'0 0.0
2016-Aug-22 02:31S 22°53' W 043°11'0 0.0
2016-Aug-22 01:31S 22°53' W 043°11'0 0.0
2016-Aug-22 00:31S 22°53' W 043°11'0 0.0
2016-Aug-21 23:31S 22°53' W 043°11'0 0.0
2016-Aug-21 22:31S 22°53' W 043°11'0 0.0
2016-Aug-21 21:31S 22°53' W 043°11'1 1.4
2016-Aug-21 20:33S 22°53' W 043°12'0 0.0
2016-Aug-21 19:33S 22°53' W 043°12'0 0.0
2016-Aug-21 18:33S 22°53' W 043°12'1 1.3
2016-Aug-21 17:33S 22°53' W 043°11'9 9.2
2016-Aug-21 16:33S 23°01' W 043°06'4 3.8
2016-Aug-21 15:33S 23°05' W 043°05'9 8.8
2016-Aug-21 14:33S 22°57' W 043°08'5 5.4
2016-Aug-21 13:33S 22°53' W 043°12'0 0.0
2016-Aug-21 12:33S 22°53' W 043°12'0 0.0
2016-Aug-21 11:33S 22°53' W 043°12'5 4.9
2016-Aug-21 10:33S 22°56' W 043°08'9 8.9
2016-Aug-21 09:33S 23°04' W 043°05'1 1.1
2016-Aug-21 08:33S 23°03' W 043°05'8 8.6
2016-Aug-21 07:33S 22°56' W 043°09'4 4.2
2016-Aug-21 06:32S 22°53' W 043°12'0 0.0
2016-Aug-21 05:33S 22°53' W 043°12'0 0.0
2016-Aug-21 04:33S 22°53' W 043°12'0 0.0
2016-Aug-21 03:33S 22°53' W 043°12'7 6.8
2016-Aug-21 02:33S 22°58' W 043°08'9 9.2
2016-Aug-21 01:34S 23°07' W 043°04'6 6.2
2016-Aug-21 00:33S 23°01' W 043°07'8 8.3
2016-Aug-20 23:33S 22°53' W 043°11'2 1.6
2016-Aug-20 22:33S 22°53' W 043°12'0 0.0
2016-Aug-20 21:34S 22°53' W 043°12'5 5.2
2016-Aug-20 20:33S 22°56' W 043°08'10 9.5
2016-Aug-20 19:33S 23°05' W 043°04'4 4.4
2016-Aug-20 18:33S 23°01' W 043°06'7 7.4
2016-Aug-20 17:33S 22°54' W 043°09'4 3.5
2016-Aug-20 16:33S 22°53' W 043°12'0 0.0
2016-Aug-20 15:33S 22°53' W 043°12'5 4.7
2016-Aug-20 14:33S 22°56' W 043°08'9 9.2
2016-Aug-20 13:33S 23°04' W 043°05'3 2.6
2016-Aug-20 12:33S 23°02' W 043°06'9 8.5
2016-Aug-20 11:33S 22°54' W 043°09'3 3.2
2016-Aug-20 10:33S 22°53' W 043°12'0 0.0
2016-Aug-20 09:33S 22°53' W 043°12'0 0.0
2016-Aug-20 08:33S 22°53' W 043°12'0 0.0
2016-Aug-20 07:33S 22°53' W 043°12'0 0.0
2016-Aug-20 06:33S 22°53' W 043°12'0 0.0
2016-Aug-20 05:33S 22°53' W 043°12'0 0.0
2016-Aug-20 04:33S 22°53' W 043°12'0 0.0
2016-Aug-20 03:33S 22°53' W 043°12'1 1.3
2016-Aug-20 02:33S 22°53' W 043°11'0 0.0
2016-Aug-20 01:33S 22°53' W 043°11'1 0.8
2016-Aug-20 00:33S 22°53' W 043°12'1 0.8
2016-Aug-19 23:33S 22°53' W 043°11'0 0.0
2016-Aug-19 22:33S 22°53' W 043°11'7 6.5
2016-Aug-19 21:33S 22°59' W 043°08'9 8.5
2016-Aug-19 20:33S 23°07' W 043°04'6 6.1
2016-Aug-19 19:33S 23°01' W 043°07'8 7.6
2016-Aug-19 18:33S 22°54' W 043°09'3 3.0
2016-Aug-19 17:33S 22°53' W 043°12'0 0.0
2016-Aug-19 16:33S 22°53' W 043°12'0 0.0
2016-Aug-19 15:33S 22°53' W 043°12'0 0.0
2016-Aug-19 14:33S 22°53' W 043°12'0 0.0
2016-Aug-19 13:33S 22°53' W 043°12'0 0.0
2016-Aug-19 12:33S 22°53' W 043°12'0 0.0
2016-Aug-19 11:33S 22°53' W 043°12'0 0.0
2016-Aug-19 10:33S 22°53' W 043°12'0 0.0
2016-Aug-19 09:33S 22°53' W 043°12'0 0.2
2016-Aug-19 08:33S 22°52' W 043°12'0 0.2
2016-Aug-19 07:33S 22°53' W 043°12'1 1.1
2016-Aug-19 06:33S 22°53' W 043°11'0 0.1
2016-Aug-19 05:33S 22°53' W 043°11'0 0.0
2016-Aug-19 04:33S 22°53' W 043°11'0 0.0
2016-Aug-19 03:33S 22°53' W 043°11'0 0.0
2016-Aug-19 02:33S 22°53' W 043°11'1 1.0
2016-Aug-19 01:33S 22°53' W 043°10'9 9.0
2016-Aug-19 00:33S 23°02' W 043°06'3 3.0
2016-Aug-18 23:32S 23°04' W 043°05'9 8.9
2016-Aug-18 22:33S 22°56' W 043°08'5 5.1
2016-Aug-18 21:33S 22°53' W 043°12'0 0.0
2016-Aug-18 20:34S 22°53' W 043°12'0 0.0
2016-Aug-18 19:33S 22°53' W 043°12'0 0.0
2016-Aug-18 18:33S 22°53' W 043°12'0 0.0
2016-Aug-18 17:33S 22°53' W 043°12'0 0.0
2016-Aug-18 16:33S 22°53' W 043°12'0 0.2
2016-Aug-18 15:33S 22°52' W 043°12'1 0.9
2016-Aug-18 14:30S 22°53' W 043°11'1 1.6
2016-Aug-18 13:33S 22°53' W 043°10'9 8.9
2016-Aug-18 12:33S 23°02' W 043°06'4 4.2
2016-Aug-18 11:33S 23°06' W 043°05'9 8.8
2016-Aug-18 10:33S 22°57' W 043°08'6 6.3
2016-Aug-18 09:33S 22°53' W 043°12'0 0.0
2016-Aug-18 08:33S 22°53' W 043°12'0 0.0
2016-Aug-18 07:33S 22°53' W 043°12'0 0.0
2016-Aug-18 06:33S 22°53' W 043°12'0 0.0
2016-Aug-18 05:33S 22°53' W 043°12'0 0.2
2016-Aug-18 04:33S 22°53' W 043°12'1 1.1
2016-Aug-18 03:33S 22°53' W 043°11'0 0.1
2016-Aug-18 02:33S 22°53' W 043°11'2 2.1
2016-Aug-18 01:33S 22°54' W 043°09'1010.1
2016-Aug-18 00:33S 23°03' W 043°06'0 0.2
2016-Aug-17 23:33S 23°04' W 043°05'9 9.3
2016-Aug-17 22:33S 22°55' W 043°09'4 4.0
2016-Aug-17 21:33S 22°53' W 043°12'0 0.0
2016-Aug-17 20:33S 22°53' W 043°12'0 0.0
2016-Aug-17 19:33S 22°53' W 043°12'0 0.0
2016-Aug-17 18:33S 22°53' W 043°12'0 0.0
2016-Aug-17 17:33S 22°53' W 043°12'0 0.0
2016-Aug-17 16:33S 22°53' W 043°12'1 0.9
2016-Aug-17 15:33S 22°53' W 043°11'0 0.3
2016-Aug-17 14:28S 22°53' W 043°11'1 0.6
2016-Aug-17 13:33S 22°53' W 043°11'8 8.0
2016-Aug-17 12:33S 23°00' W 043°07'5 5.2
2016-Aug-17 11:30S 23°06' W 043°05'9 9.2
2016-Aug-17 10:33S 22°57' W 043°08'6 6.2
2016-Aug-17 09:33S 22°53' W 043°12'0 0.0
2016-Aug-17 08:33S 22°53' W 043°12'2 2.1
2016-Aug-17 07:33S 22°53' W 043°10'8 8.4
2016-Aug-17 06:33S 23°01' W 043°06'5 4.5
2016-Aug-17 05:32S 23°05' W 043°05'  

Dump ship's entire track history